Time;durP1;ratioP1;P1;durP2;ratioP2;P2;SDS_P1;SDS_P2;PMS_P1;PMS_P2;Temp;Humidity;BMP_temperature;BMP_pressure;BME280_temperature;BME280_humidity;BME280_pressure;Samples;Min_cycle;Max_cycle;Signal;HPM_P1;HPM_P2
2024/03/08 00:00:09;;;;;;;37.60;15.63;;;;;;;7.42;53.26;101972.41;4919045;28;96793;-86
2024/03/08 00:02:37;;;;;;;36.30;16.67;;;;;;;7.41;53.22;101969.75;4932894;28;96896;-86
2024/03/08 00:05:08;;;;;;;42.55;17.15;;;;;;;7.40;53.13;101978.38;4938059;28;97838;-90
2024/03/08 00:07:35;;;;;;;40.10;17.10;;;;;;;7.38;53.09;101970.53;4935116;28;99813;-89
2024/03/08 00:10:05;;;;;;;43.00;17.50;;;;;;;7.36;52.94;101972.16;4941375;28;96955;-89
2024/03/08 00:12:30;;;;;;;;;;;;;;;7.34;52.88;101970.31;4922205;28;97030;-89
2024/03/08 00:14:56;;;;;;;41.67;15.82;;;;;;;7.35;53.01;101970.38;4937894;28;100298;-89
2024/03/08 00:17:28;;;;;;;42.47;18.30;;;;;;;7.31;53.00;101964.97;4931109;28;97721;-90
2024/03/08 00:19:54;;;;;;;46.60;16.42;;;;;;;7.28;53.18;101965.75;4937048;28;96832;-90
2024/03/08 00:22:20;;;;;;;41.38;17.30;;;;;;;7.24;52.98;101963.84;4936879;28;96984;-91
2024/03/08 00:24:49;;;;;;;43.17;16.83;;;;;;;7.23;53.22;101954.25;4927410;28;99871;-86
2024/03/08 00:27:15;;;;;;;40.20;17.45;;;;;;;7.22;53.20;101960.28;4945620;28;100612;-86
2024/03/08 00:29:41;;;;;;;37.88;17.35;;;;;;;7.20;52.98;101955.03;4924380;28;96886;-86
2024/03/08 00:32:07;;;;;;;36.17;15.35;;;;;;;7.19;53.04;101961.03;4913809;28;96803;-90
2024/03/08 00:34:38;;;;;;;42.22;16.98;;;;;;;7.18;53.02;101954.09;4918228;28;100875;-86
2024/03/08 00:37:04;;;;;;;41.33;16.50;;;;;;;7.15;53.00;101943.56;4918735;28;99891;-86
2024/03/08 00:39:29;;;;;;;44.17;17.48;;;;;;;7.14;53.06;101940.88;4934777;28;96804;-85
2024/03/08 00:41:55;;;;;;;37.47;16.15;;;;;;;7.11;53.15;101938.16;4952926;28;96683;-87
2024/03/08 00:44:20;;;;;;;43.38;17.35;;;;;;;7.09;53.10;101945.88;4918977;28;100930;-87
2024/03/08 00:46:46;;;;;;;41.15;17.90;;;;;;;7.08;53.20;101935.41;4940098;28;100191;-86
2024/03/08 00:49:12;;;;;;;42.28;15.60;;;;;;;7.05;53.39;101936.19;4928024;28;96863;-86
2024/03/08 00:51:38;;;;;;;40.95;16.75;;;;;;;7.02;53.10;101936.94;4941865;28;96772;-87
2024/03/08 00:54:04;;;;;;;36.83;16.17;;;;;;;7.00;53.21;101935.97;4913254;28;100779;-85
2024/03/08 00:56:29;;;;;;;43.13;16.02;;;;;;;6.98;53.30;101931.53;4922799;28;99767;-87
2024/03/08 00:58:55;;;;;;;47.83;19.65;;;;;;;6.97;53.23;101919.38;4942958;28;96904;-87
2024/03/08 01:01:20;;;;;;;45.30;17.30;;;;;;;6.94;53.08;101920.13;4922048;28;96938;-90
2024/03/08 01:03:46;;;;;;;42.17;17.67;;;;;;;6.92;53.24;101919.19;4933476;28;100084;-90
2024/03/08 01:06:12;;;;;;;38.25;16.17;;;;;;;6.91;53.08;101913.94;4919017;28;100595;-89
2024/03/08 01:08:42;;;;;;;44.08;16.48;;;;;;;6.89;53.34;101911.25;4924496;28;96799;-89
2024/03/08 01:11:09;;;;;;;40.63;16.95;;;;;;;6.88;53.31;101906.00;4934202;28;97014;-89
2024/03/08 01:13:35;;;;;;;38.60;15.80;;;;;;;6.84;53.37;101905.88;4931017;28;97962;-89
2024/03/08 01:16:00;;;;;;;41.25;15.18;;;;;;;6.83;53.36;101898.03;4919119;28;99566;-89
2024/03/08 01:18:26;;;;;;;41.42;18.05;;;;;;;6.80;53.21;101893.59;4952492;28;96700;-90
2024/03/08 01:20:51;;;;;;;43.33;16.48;;;;;;;6.78;53.35;101890.03;4935348;28;96806;-90
2024/03/08 01:23:17;;;;;;;40.70;16.70;;;;;;;6.76;53.36;101889.09;4936575;28;96768;-90
2024/03/08 01:25:43;;;;;;;38.58;15.52;;;;;;;6.75;53.35;101891.59;4936646;28;97927;-90
2024/03/08 01:28:09;;;;;;;39.92;16.38;;;;;;;6.74;53.34;101887.22;4923337;28;96688;-86
2024/03/08 01:30:37;;;;;;;41.40;17.23;;;;;;;6.72;53.36;101888.88;4935333;28;96844;-86
2024/03/08 01:33:03;;;;;;;44.75;18.10;;;;;;;6.70;53.46;101886.19;4918778;28;100253;-86
2024/03/08 01:35:28;;;;;;;43.40;18.73;;;;;;;6.69;53.44;101874.06;4952180;28;97676;-85
2024/03/08 01:37:54;;;;;;;41.50;17.30;;;;;;;6.66;53.28;101873.94;4922750;28;96859;-86
2024/03/08 01:40:20;;;;;;;39.22;17.00;;;;;;;6.63;53.40;101873.78;4922606;28;96942;-86
2024/03/08 01:42:46;;;;;;;42.13;16.60;;;;;;;6.61;53.35;101868.56;4926418;28;100210;-85
2024/03/08 01:45:11;;;;;;;37.58;16.65;;;;;;;6.58;53.25;101870.13;4936190;28;99819;-86
2024/03/08 01:47:37;;;;;;;40.63;18.05;;;;;;;6.55;53.55;101857.88;4960780;28;96702;-90
2024/03/08 01:50:04;;;;;;;39.00;16.50;;;;;;;6.56;53.59;101867.44;4925972;28;96986;-91
2024/03/08 01:52:31;;;;;;;45.80;18.90;;;;;;;6.55;53.48;101859.59;4922604;28;99877;-86
2024/03/08 01:55:00;;;;;;;41.15;16.90;;;;;;;6.53;53.57;101856.94;4922419;28;100229;-86
2024/03/08 01:57:28;;;;;;;42.60;17.50;;;;;;;6.52;53.45;101857.75;4939095;28;96938;-86
2024/03/08 01:59:55;;;;;;;41.05;17.85;;;;;;;6.51;53.34;101858.59;4939164;28;96746;-87
2024/03/08 02:02:21;;;;;;;44.22;18.00;;;;;;;6.50;53.56;101854.19;4940050;28;99337;-86
2024/03/08 02:04:47;;;;;;;37.03;16.60;;;;;;;6.47;53.41;101860.16;4938778;28;100057;-86
2024/03/08 02:07:13;;;;;;;40.35;17.30;;;;;;;6.44;53.33;101852.22;4923223;28;96917;-86
2024/03/08 02:09:39;;;;;;;37.67;16.60;;;;;;;6.41;53.40;101846.88;4943845;28;96886;-90
2024/03/08 02:12:06;;;;;;;43.70;19.60;;;;;;;6.39;53.27;101850.25;4946993;28;99175;-90
2024/03/08 02:14:36;;;;;;;41.40;16.55;;;;;;;6.36;53.35;101843.19;4930706;28;100010;-90
2024/03/08 02:17:02;;;;;;;38.72;16.50;;;;;;;6.33;53.45;101843.09;4922592;28;96904;-90
2024/03/08 02:19:27;;;;;;;43.78;17.88;;;;;;;6.32;53.32;101843.88;4943356;28;96943;-90
2024/03/08 02:21:53;;;;;;;41.35;18.85;;;;;;;6.29;53.36;101833.38;4930811;28;99466;-90
2024/03/08 02:24:19;;;;;;;40.58;18.60;;;;;;;6.27;53.43;101833.31;4921981;28;100687;-90
2024/03/08 02:26:45;;;;;;;43.58;16.67;;;;;;;6.24;53.39;101819.34;4941331;28;96804;-89
2024/03/08 02:29:10;;;;;;;45.10;17.92;;;;;;;6.25;53.41;101823.69;4946743;28;96890;-90
2024/03/08 02:31:36;;;;;;;43.90;16.77;;;;;;;6.23;53.26;101822.75;4924891;28;99935;-90
2024/03/08 02:34:01;;;;;;;42.92;19.52;;;;;;;6.20;53.49;101826.09;4921440;28;100530;-89
2024/03/08 02:36:27;;;;;;;40.08;17.02;;;;;;;6.16;53.34;101816.38;4934518;28;96798;-89
2024/03/08 02:38:55;;;;;;;38.75;18.48;;;;;;;6.15;53.48;101808.53;4924176;28;97238;-90
2024/03/08 02:41:21;;;;;;;43.67;19.15;;;;;;;6.13;53.44;101816.22;4919584;28;100980;-86
2024/03/08 02:43:46;;;;;;;39.30;17.50;;;;;;;6.09;53.43;101812.63;4936501;28;100008;-86
2024/03/08 02:46:12;;;;;;;40.80;18.77;;;;;;;6.07;53.31;101803.88;4937871;28;96706;-86
2024/03/08 02:48:37;;;;;;;40.95;18.85;;;;;;;6.05;53.26;101799.47;4937885;28;96743;-89
2024/03/08 02:51:03;;;;;;;41.17;19.50;;;;;;;6.02;53.45;101791.53;4919759;28;100648;-89
2024/03/08 02:53:29;;;;;;;42.20;18.90;;;;;;;6.00;53.53;101798.38;4939169;28;97452;-90
2024/03/08 02:55:55;;;;;;;41.55;18.67;;;;;;;5.99;53.44;101789.72;4936532;28;96849;-90
2024/03/08 02:58:20;;;;;;;38.40;18.70;;;;;;;5.98;53.49;101789.63;4954383;28;96791;-90
2024/03/08 03:00:46;;;;;;;41.05;16.38;;;;;;;5.99;53.35;101787.13;4938725;28;100479;-90
2024/03/08 03:03:11;;;;;;;39.83;17.40;;;;;;;5.97;53.55;101785.25;4921996;28;100518;-90
2024/03/08 03:05:37;;;;;;;44.92;19.38;;;;;;;5.94;53.45;101787.69;4938297;28;96950;-90
2024/03/08 03:08:08;;;;;;;41.42;16.50;;;;;;;5.91;53.46;101781.53;4924392;28;97027;-91
2024/03/08 03:10:35;;;;;;;41.75;18.90;;;;;;;5.89;53.47;101777.13;4939337;28;100328;-91
2024/03/08 03:13:01;;;;;;;41.22;17.58;;;;;;;5.88;53.45;101776.25;4941305;28;97840;-86
2024/03/08 03:15:27;;;;;;;41.83;18.88;;;;;;;5.86;53.40;101774.38;4955087;28;96668;-85
2024/03/08 03:17:52;;;;;;;38.58;17.33;;;;;;;5.85;53.27;101776.09;4922232;28;96814;-86
2024/03/08 03:20:26;;;;;;;37.13;16.85;;;;;;;5.84;53.57;101769.13;4937467;28;100047;-87
2024/03/08 03:22:52;;;;;;;44.72;18.30;;;;;;;5.82;53.39;101770.75;4921194;28;100547;-91
2024/03/08 03:25:33;;;;;;;40.33;18.20;;;;;;;5.81;53.53;101766.41;4937887;28;97102;-91
2024/03/08 03:27:59;;;;;;;38.97;18.52;;;;;;;5.79;53.62;101765.44;4923123;28;96885;-91
2024/03/08 03:30:26;;;;;;;44.13;18.67;;;;;;;5.79;53.42;101761.97;4938890;28;100467;-90
2024/03/08 03:32:54;;;;;;;41.42;17.25;;;;;;;5.77;53.42;101755.81;4936137;28;100540;-90
2024/03/08 03:35:21;;;;;;;39.63;19.08;;;;;;;5.76;53.47;101754.94;4940722;28;96829;-91
2024/03/08 03:38:06;;;;;;;40.30;18.10;;;;;;;5.75;53.44;101758.34;4941057;28;96778;-90
2024/03/08 03:40:36;;;;;;;36.28;18.08;;;;;;;5.73;53.53;101754.78;4926135;28;100778;-87
2024/03/08 03:43:02;;;;;;;;;;;;;;;5.69;53.25;101752.88;4952869;28;99861;-87
2024/03/08 03:45:29;;;;;;;40.75;17.75;;;;;;;5.69;53.28;101742.53;4944352;28;96813;-90
2024/03/08 03:47:54;;;;;;;38.47;16.85;;;;;;;5.66;53.45;101745.84;4939608;28;96789;-90
2024/03/08 03:50:21;;;;;;;42.90;20.38;;;;;;;5.64;53.30;101744.91;4939340;28;99785;-90
2024/03/08 03:52:48;;;;;;;43.72;19.15;;;;;;;5.62;53.48;101737.88;4950868;28;97745;-87
2024/03/08 03:55:14;;;;;;;40.05;18.05;;;;;;;5.59;53.39;101738.63;4937803;28;96765;-86
2024/03/08 03:57:40;;;;;;;43.85;17.85;;;;;;;5.58;53.33;101742.03;4936806;28;96794;-86
2024/03/08 04:00:10;;;;;;;38.97;18.77;;;;;;;5.58;53.59;101735.94;4943368;28;97735;-86
2024/03/08 04:02:40;;;;;;;40.00;17.13;;;;;;;5.57;53.50;101734.19;4916709;28;99591;-86
2024/03/08 04:05:07;;;;;;;40.88;16.48;;;;;;;5.56;53.28;101747.94;4929484;28;96914;-86
2024/03/08 04:07:34;;;;;;;40.22;17.90;;;;;;;5.54;53.36;101740.09;4937219;28;96943;-85
2024/03/08 04:10:03;;;;;;;40.22;19.65;;;;;;;5.53;53.50;101728.88;4934831;28;100204;-87
2024/03/08 04:12:29;;;;;;;41.85;18.70;;;;;;;5.52;53.42;101729.66;4952189;28;100246;-87
2024/03/08 04:14:55;;;;;;;48.75;20.05;;;;;;;5.51;53.51;101727.03;4939163;28;96826;-86
2024/03/08 04:17:21;;;;;;;42.55;18.40;;;;;;;5.51;53.75;101727.91;4927028;28;96839;-86
2024/03/08 04:19:48;;;;;;;39.28;19.00;;;;;;;5.50;53.43;101720.94;4939036;28;97445;-86
2024/03/08 04:22:14;;;;;;;43.92;19.17;;;;;;;5.51;53.46;101727.91;4939852;28;97701;-87
2024/03/08 04:24:40;;;;;;;40.70;17.85;;;;;;;5.51;53.21;101724.44;4919312;28;96843;-86
2024/03/08 04:27:07;;;;;;;44.55;19.00;;;;;;;5.51;53.35;101721.84;4923795;28;96864;-86
2024/03/08 04:29:34;;;;;;;43.03;19.08;;;;;;;5.48;53.28;101712.22;4937590;28;97963;-86
2024/03/08 04:32:00;;;;;;;37.95;17.98;;;;;;;5.48;53.33;101713.94;4918400;28;100310;-87
2024/03/08 04:34:28;;;;;;;42.50;19.23;;;;;;;5.47;53.27;101714.75;4940828;28;96881;-86
2024/03/08 04:36:54;;;;;;;38.15;16.83;;;;;;;5.46;53.26;101718.16;4943513;28;96872;-86
2024/03/08 04:39:21;;;;;;;45.38;19.75;;;;;;;5.46;53.20;101724.22;4936166;28;100657;-86
2024/03/08 04:41:47;;;;;;;42.88;20.08;;;;;;;5.44;53.44;101723.25;4922319;28;100072;-86
2024/03/08 04:44:12;;;;;;;38.17;17.75;;;;;;;5.44;53.36;101712.91;4938572;28;96751;-90
2024/03/08 04:46:38;;;;;;;45.53;19.77;;;;;;;5.45;53.57;101708.63;4922465;28;97016;-90
2024/03/08 04:49:04;;;;;;;43.95;17.92;;;;;;;5.45;53.39;101706.91;4931317;28;96868;-86
2024/03/08 04:51:29;;;;;;;40.78;18.67;;;;;;;5.44;53.29;101710.31;4935479;28;100066;-86
2024/03/08 04:53:57;;;;;;;42.55;20.02;;;;;;;5.43;53.31;101700.78;4937498;28;96815;-86
2024/03/08 04:56:22;;;;;;;40.22;18.30;;;;;;;5.43;53.32;101703.34;4931516;28;96841;-89
2024/03/08 04:58:48;;;;;;;44.28;18.92;;;;;;;5.42;53.33;101706.78;4922847;28;100111;-89
2024/03/08 05:01:14;;;;;;;45.80;20.80;;;;;;;5.40;53.22;101697.16;4920823;28;99962;-86
2024/03/08 05:03:39;;;;;;;39.72;19.55;;;;;;;5.39;53.53;101698.88;4940278;28;96941;-86
2024/03/08 05:06:05;;;;;;;43.20;19.35;;;;;;;5.39;53.19;101700.56;4921882;28;96762;-86
2024/03/08 05:08:30;;;;;;;44.88;19.50;;;;;;;5.38;53.27;101703.97;4937473;28;97611;-87
2024/03/08 05:10:56;;;;;;;41.15;19.02;;;;;;;5.37;53.24;101697.91;4935193;28;97241;-87
2024/03/08 05:13:23;;;;;;;45.03;19.73;;;;;;;5.37;53.24;101694.44;4934973;28;96822;-87
2024/03/08 05:15:51;;;;;;;42.65;19.25;;;;;;;5.36;53.25;101695.25;4906457;28;96786;-87
2024/03/08 05:18:17;;;;;;;41.45;18.67;;;;;;;5.37;53.20;101689.28;4936648;28;100485;-90
2024/03/08 05:20:43;;;;;;;42.20;21.05;;;;;;;5.34;53.15;101684.81;4934751;28;100488;-90
2024/03/08 05:23:08;;;;;;;42.28;18.88;;;;;;;5.33;53.22;101685.66;4939506;28;96858;-90
2024/03/08 05:25:34;;;;;;;44.97;19.23;;;;;;;5.32;53.16;101689.03;4923439;28;96927;-90
2024/03/08 05:28:00;;;;;;;42.50;20.52;;;;;;;5.33;53.13;101685.66;4940242;28;99192;-89
2024/03/08 05:30:25;;;;;;;43.83;18.08;;;;;;;5.31;53.32;101680.41;4940117;28;97938;-90
2024/03/08 05:32:51;;;;;;;39.70;19.05;;;;;;;5.32;53.16;101691.63;4934141;28;97158;-91
2024/03/08 05:35:17;;;;;;;41.20;17.88;;;;;;;5.31;53.29;101692.44;4925073;28;96743;-86
2024/03/08 05:37:42;;;;;;;42.97;20.52;;;;;;;5.31;53.34;101692.44;4943061;28;100462;-89
2024/03/08 05:40:11;;;;;;;44.65;20.10;;;;;;;5.31;53.01;101687.25;4941738;28;100202;-89
2024/03/08 05:42:40;;;;;;;41.13;18.77;;;;;;;5.29;53.06;101683.72;4940595;28;96759;-90
2024/03/08 05:45:06;;;;;;;36.58;16.38;;;;;;;5.28;53.04;101685.41;4946516;28;96715;-90
2024/03/08 05:47:35;;;;;;;36.67;17.15;;;;;;;5.27;53.21;101680.16;4922466;28;98785;-86
2024/03/08 05:50:01;;;;;;;40.67;19.52;;;;;;;5.27;53.22;101680.16;4923973;28;100183;-87
2024/03/08 05:52:27;;;;;;;42.08;20.25;;;;;;;5.25;53.28;101672.34;4939060;28;96826;-87
2024/03/08 05:54:53;;;;;;;43.80;18.85;;;;;;;5.25;53.14;101668.88;4937969;28;96843;-91
2024/03/08 05:57:19;;;;;;;42.97;20.67;;;;;;;5.26;53.12;101678.41;4945583;28;100597;-90
2024/03/08 05:59:44;;;;;;;42.13;20.23;;;;;;;5.24;53.19;101670.56;4924802;28;98110;-89
2024/03/08 06:02:10;;;;;;;42.42;18.65;;;;;;;5.23;53.21;101666.22;4928220;28;96919;-86
2024/03/08 06:04:35;;;;;;;40.55;19.77;;;;;;;5.25;53.21;101666.28;4940736;28;96907;-86
2024/03/08 06:07:03;;;;;;;42.78;20.65;;;;;;;5.24;52.99;101660.22;4924809;28;99623;-86
2024/03/08 06:09:46;;;;;;;41.13;19.45;;;;;;;5.22;53.17;101661.84;4922992;28;100310;-89
2024/03/08 06:12:12;;;;;;;43.47;19.05;;;;;;;5.21;52.99;101660.06;4922381;28;96858;-90
2024/03/08 06:14:37;;;;;;;42.78;19.40;;;;;;;5.20;53.02;101657.41;4923856;28;96806;-89
2024/03/08 06:17:07;;;;;;;42.33;19.10;;;;;;;5.19;52.97;101658.22;4939673;28;99128;-92
2024/03/08 06:19:32;;;;;;;44.80;20.30;;;;;;;5.19;53.25;101653.94;4939526;28;97831;-92
2024/03/08 06:21:58;;;;;;;42.40;19.63;;;;;;;5.21;53.16;101659.19;4945035;28;96775;-92
2024/03/08 06:24:23;;;;;;;39.33;18.85;;;;;;;5.19;53.16;101656.53;4958656;28;96868;-93
2024/03/08 06:26:49;;;;;;;39.50;20.52;;;;;;;5.21;53.05;101656.63;4941232;28;100361;-91
2024/03/08 06:29:15;;;;;;;40.60;18.98;;;;;;;5.20;53.18;101660.00;4923733;28;100563;-91
2024/03/08 06:31:41;;;;;;;45.15;19.25;;;;;;;5.20;53.22;101653.13;4925202;28;96901;-91
2024/03/08 06:34:09;;;;;;;39.15;17.50;;;;;;;5.21;52.96;101659.19;4922146;28;96998;-91
2024/03/08 06:36:35;;;;;;;42.78;18.90;;;;;;;5.20;52.89;101653.13;4958319;28;98049;-90
2024/03/08 06:39:00;;;;;;;42.13;20.00;;;;;;;5.20;53.15;101660.88;4923797;28;98783;-91
2024/03/08 06:41:26;;;;;;;43.30;18.30;;;;;;;5.22;53.27;101650.59;4922635;28;96933;-89
2024/03/08 06:43:56;;;;;;;40.97;19.67;;;;;;;5.25;53.29;101651.63;4940368;28;96888;-88
2024/03/08 06:46:22;;;;;;;40.38;18.13;;;;;;;5.26;52.97;101655.13;4921072;28;99199;-88
2024/03/08 06:48:49;;;;;;;43.20;19.10;;;;;;;5.28;53.14;101650.91;4937315;28;100104;-91
2024/03/08 06:51:15;;;;;;;41.75;19.67;;;;;;;5.29;53.23;101647.50;4925378;28;96762;-89
2024/03/08 06:53:40;;;;;;;40.92;19.55;;;;;;;5.32;53.30;101651.09;4942593;28;96647;-90
2024/03/08 06:56:07;;;;;;;43.10;21.20;;;;;;;5.37;53.26;101656.50;4944965;28;99090;-90
2024/03/08 06:58:36;;;;;;;44.33;20.38;;;;;;;5.39;53.36;101660.06;4934885;28;99855;-90
2024/03/08 07:01:03;;;;;;;43.03;20.55;;;;;;;5.44;53.46;101649.94;4943141;28;96838;-90
2024/03/08 07:03:30;;;;;;;40.95;18.45;;;;;;;5.50;53.13;101645.91;4936958;28;96889;-89
2024/03/08 07:05:58;;;;;;;40.35;18.98;;;;;;;5.57;53.51;101644.50;4941174;28;96866;-89
2024/03/08 07:08:24;;;;;;;44.25;21.05;;;;;;;5.64;53.33;101638.78;4925725;28;100383;-89
2024/03/08 07:10:49;;;;;;;40.00;18.95;;;;;;;5.70;53.33;101639.06;4925214;28;96678;-88
2024/03/08 07:13:16;;;;;;;37.50;17.25;;;;;;;5.78;53.49;101638.53;4933777;28;96895;-89
2024/03/08 07:15:42;;;;;;;41.47;18.55;;;;;;;5.86;53.38;101637.16;4930595;28;100073;-89
2024/03/08 07:18:08;;;;;;;40.60;18.30;;;;;;;5.91;53.23;101633.06;4932760;28;100310;-90
2024/03/08 07:20:35;;;;;;;44.05;20.50;;;;;;;6.00;53.28;101635.22;4942968;28;96659;-88
2024/03/08 07:23:00;;;;;;;42.70;18.83;;;;;;;6.07;53.12;101632.06;4946454;28;96999;-90
2024/03/08 07:25:29;;;;;;;44.00;20.17;;;;;;;6.13;53.04;101624.53;4942262;28;100016;-90
2024/03/08 07:27:55;;;;;;;40.05;18.23;;;;;;;6.19;53.20;101619.66;4941485;28;99052;-89
2024/03/08 07:33:13;;;;;;;42.65;20.65;;;;;;;6.40;53.19;101616.19;4960010;28;96663;-89
2024/03/08 07:35:40;;;;;;;43.42;20.23;;;;;;;6.48;53.13;101612.22;4939422;28;96932;-87
2024/03/08 07:38:06;;;;;;;39.65;17.60;;;;;;;6.55;53.02;101611.63;4925030;28;99435;-89
2024/03/08 07:40:40;;;;;;;44.53;21.08;;;;;;;6.64;52.86;101609.41;4924895;28;96830;-88
2024/03/08 07:43:10;;;;;;;45.90;20.70;;;;;;;6.76;52.77;101609.03;4950859;28;96705;-88
2024/03/08 07:45:39;;;;;;;38.30;19.33;;;;;;;6.86;52.64;101600.81;4954601;28;99230;-89
2024/03/08 07:48:09;;;;;;;41.30;18.15;;;;;;;6.98;52.38;101603.00;4942558;28;96630;-89
2024/03/08 07:50:39;;;;;;;37.53;19.70;;;;;;;7.13;52.73;101602.72;4942253;28;96653;-88
2024/03/08 07:53:08;;;;;;;38.60;17.92;;;;;;;7.33;53.22;101602.59;4941619;28;96681;-89
2024/03/08 07:55:35;;;;;;;37.22;18.17;;;;;;;7.58;53.45;101597.47;4941879;28;100329;-89
2024/03/08 07:58:15;;;;;;;40.95;19.88;;;;;;;7.90;53.72;101591.69;4927947;28;100140;-89
2024/03/08 08:00:44;;;;;;;42.00;19.48;;;;;;;8.19;53.92;101587.50;4925250;28;96643;-89
2024/03/08 08:03:09;;;;;;;38.75;19.50;;;;;;;8.46;53.59;101589.28;4925576;28;96792;-89
2024/03/08 08:05:42;;;;;;;37.20;19.75;;;;;;;8.68;53.16;101589.19;4929683;28;100442;-88
2024/03/08 08:08:10;;;;;;;33.55;18.40;;;;;;;8.88;52.38;101582.00;4923608;28;100711;-88
2024/03/08 08:10:37;;;;;;;35.50;19.05;;;;;;;9.02;51.43;101581.53;4922978;28;96784;-89
2024/03/08 08:13:22;;;;;;;34.58;17.95;;;;;;;9.11;50.92;101582.69;4924155;28;96825;-89
2024/03/08 08:15:48;;;;;;;35.42;17.90;;;;;;;9.27;50.69;101577.94;4937979;28;99774;-90
2024/03/08 08:18:14;;;;;;;35.10;19.20;;;;;;;9.40;50.32;101574.00;4923819;28;100283;-89
2024/03/08 08:20:39;;;;;;;36.30;18.42;;;;;;;9.49;49.87;101572.53;4945104;28;96641;-92
2024/03/08 08:23:05;;;;;;;35.80;19.25;;;;;;;9.60;49.46;101564.13;4941700;28;96686;-90
2024/03/08 08:25:34;;;;;;;39.92;20.08;;;;;;;9.73;49.86;101561.03;4939851;28;100609;-90
2024/03/08 08:27:59;;;;;;;35.25;19.23;;;;;;;9.94;49.50;101560.72;4939059;28;97749;-89
2024/03/08 08:30:25;;;;;;;39.45;20.58;;;;;;;10.15;50.27;101556.94;4925887;28;96878;-89
2024/03/08 08:32:51;;;;;;;36.33;18.60;;;;;;;10.41;50.42;101545.47;4937438;28;96973;-89
2024/03/08 08:35:18;;;;;;;34.22;18.52;;;;;;;10.71;50.92;101548.75;4917019;28;99690;-88
2024/03/08 08:37:44;;;;;;;37.05;19.20;;;;;;;11.01;51.30;101552.03;4955434;28;97654;-90
2024/03/08 08:40:14;;;;;;;32.95;17.90;;;;;;;11.23;49.50;101549.94;4940471;28;96729;-90
2024/03/08 08:42:40;;;;;;;37.78;19.60;;;;;;;11.32;49.04;101546.59;4937168;28;96779;-90
2024/03/08 08:45:10;;;;;;;36.22;17.73;;;;;;;11.40;47.87;101540.69;4932948;28;100361;-90
2024/03/08 08:47:36;;;;;;;36.35;19.63;;;;;;;11.41;46.85;101534.63;4938248;28;100426;-88
2024/03/08 08:50:04;;;;;;;37.13;20.00;;;;;;;11.32;46.12;101537.06;4921391;28;96851;-89
2024/03/08 08:52:31;;;;;;;35.25;19.23;;;;;;;11.27;46.19;101527.38;4945971;28;96927;-89
2024/03/08 08:54:57;;;;;;;33.75;18.52;;;;;;;11.23;46.17;101522.06;4914412;28;99888;-87
2024/03/08 08:57:23;;;;;;;36.88;19.23;;;;;;;11.22;46.02;101520.28;4953606;28;97625;-90
2024/03/08 08:59:48;;;;;;;36.63;18.15;;;;;;;11.20;45.52;101524.59;4929844;28;96773;-91
2024/03/08 09:02:15;;;;;;;35.70;19.58;;;;;;;11.16;45.71;101514.97;4936880;28;97047;-90
2024/03/08 09:04:40;;;;;;;34.88;17.42;;;;;;;11.17;45.49;101513.22;4921135;28;100488;-90
2024/03/08 09:07:08;;;;;;;36.58;19.13;;;;;;;11.15;45.75;101513.19;4936193;28;100283;-90
2024/03/08 09:09:34;;;;;;;34.50;18.52;;;;;;;11.19;45.99;101509.81;4933485;28;96859;-90
2024/03/08 09:12:00;;;;;;;37.95;19.85;;;;;;;11.19;45.48;101503.69;4927191;28;97057;-90
2024/03/08 09:14:26;;;;;;;36.05;17.70;;;;;;;11.19;45.55;101512.41;4925577;28;100612;-90
2024/03/08 09:16:52;;;;;;;34.53;17.85;;;;;;;11.27;46.20;101511.69;4922169;28;98643;-91
2024/03/08 09:19:19;;;;;;;34.60;19.67;;;;;;;11.39;46.29;101496.25;4914396;28;96873;-89
2024/03/08 09:21:45;;;;;;;33.55;19.40;;;;;;;11.50;46.01;101489.50;4938670;28;96854;-90
2024/03/08 09:24:11;;;;;;;35.50;19.73;;;;;;;11.62;46.04;101483.63;4937793;28;101006;-90
2024/03/08 09:26:37;;;;;;;34.28;17.33;;;;;;;11.74;46.01;101481.22;4920481;28;101175;-90
2024/03/08 09:29:02;;;;;;;36.88;19.65;;;;;;;11.85;45.72;101478.81;4938437;28;96889;-91
2024/03/08 09:31:28;;;;;;;34.10;17.35;;;;;;;11.93;44.83;101472.03;4920905;28;96856;-90
2024/03/08 09:33:53;;;;;;;36.13;19.15;;;;;;;11.92;44.32;101482.44;4936337;28;100515;-91
2024/03/08 09:36:20;;;;;;;34.67;17.55;;;;;;;11.88;44.54;101476.25;4921162;28;99824;-90
2024/03/08 09:38:45;;;;;;;34.35;18.00;;;;;;;11.86;44.40;101472.75;4935841;28;96807;-90
2024/03/08 09:41:12;;;;;;;34.83;18.98;;;;;;;11.87;44.53;101466.66;4922355;28;96779;-91
2024/03/08 09:43:38;;;;;;;33.10;19.08;;;;;;;11.94;44.53;101460.72;4935846;28;96971;-92
2024/03/08 09:46:06;;;;;;;36.22;17.77;;;;;;;12.00;44.21;101449.47;4920102;28;100777;-91
2024/03/08 09:48:32;;;;;;;34.15;17.42;;;;;;;12.08;44.24;101454.81;4938266;28;96933;-90
2024/03/08 09:50:58;;;;;;;33.33;18.23;;;;;;;12.17;44.66;101452.34;4924093;28;96938;-91
2024/03/08 09:53:23;;;;;;;31.75;18.75;;;;;;;12.33;44.99;101435.16;4919521;28;100424;-87
2024/03/08 09:55:49;;;;;;;32.80;18.05;;;;;;;12.48;44.96;101435.38;4936958;28;100613;-86
2024/03/08 09:58:27;;;;;;;36.20;18.80;;;;;;;12.63;44.78;101433.84;4934504;28;96808;-88
2024/03/08 10:00:52;;;;;;;35.58;19.85;;;;;;;12.81;45.43;101425.34;4934004;28;96814;-87
2024/03/08 10:03:19;;;;;;;31.63;16.83;;;;;;;13.01;44.48;101425.59;4919892;28;100625;-87
2024/03/08 10:05:46;;;;;;;34.00;17.55;;;;;;;13.10;43.92;101423.97;4930137;28;99911;-87
2024/03/08 10:08:13;;;;;;;31.65;18.02;;;;;;;13.14;43.33;101425.75;4935778;28;96853;-86
2024/03/08 10:10:38;;;;;;;31.85;18.23;;;;;;;13.15;42.77;101416.13;4919374;28;96911;-87
2024/03/08 10:13:08;;;;;;;35.10;17.98;;;;;;;13.14;42.53;101412.66;4925686;28;100393;-87
2024/03/08 10:15:34;;;;;;;33.80;19.13;;;;;;;13.14;42.28;101406.53;4921298;28;100749;-87
2024/03/08 10:17:59;;;;;;;32.83;18.42;;;;;;;13.12;41.94;101403.91;4927684;28;96785;-87
2024/03/08 10:20:33;;;;;;;31.73;17.58;;;;;;;13.12;42.18;101403.91;4923090;28;96772;-87
2024/03/08 10:23:05;;;;;;;32.67;16.80;;;;;;;13.22;42.39;101386.53;4926776;28;100652;-87
2024/03/08 10:25:31;;;;;;;31.77;17.27;;;;;;;13.31;42.18;101383.16;4920739;28;100552;-89
2024/03/08 10:27:57;;;;;;;32.22;17.90;;;;;;;13.39;41.93;101376.25;4938207;28;97266;-89
2024/03/08 10:30:23;;;;;;;28.75;15.65;;;;;;;13.44;41.61;101369.31;4938708;28;96862;-89
2024/03/08 10:32:49;;;;;;;30.85;16.35;;;;;;;13.46;41.29;101364.09;4920770;28;100493;-85
2024/03/08 10:35:18;;;;;;;29.75;16.27;;;;;;;13.51;41.47;101370.25;4921651;28;100600;-89
2024/03/08 10:38:02;;;;;;;30.33;17.15;;;;;;;13.52;41.49;101356.28;4939669;28;96840;-90
2024/03/08 10:40:28;;;;;;;29.25;16.85;;;;;;;13.66;42.35;101343.28;4932845;28;96951;-89
2024/03/08 10:42:56;;;;;;;31.10;17.17;;;;;;;13.84;42.52;101335.56;4938969;28;100287;-89
2024/03/08 10:45:36;;;;;;;30.83;15.57;;;;;;;14.08;42.35;101339.19;4921508;28;100276;-86
2024/03/08 10:48:35;;;;;;;29.52;16.73;;;;;;;14.34;42.70;101333.22;4930036;28;96972;-89
2024/03/08 10:51:05;;;;;;;26.67;14.05;;;;;;;14.49;41.19;101333.28;4940258;28;97271;-92
2024/03/08 10:53:30;;;;;;;26.40;13.95;;;;;;;14.56;41.26;101327.22;4923986;28;98903;-90
2024/03/08 10:55:57;;;;;;;25.45;14.93;;;;;;;14.66;41.48;101315.88;4940933;28;99295;-91
2024/03/08 10:58:27;;;;;;;25.27;13.77;;;;;;;14.96;41.82;101308.97;4925508;28;96881;-91
2024/03/08 11:00:56;;;;;;;26.50;16.00;;;;;;;15.27;40.04;101302.88;4941068;28;96899;-92
2024/03/08 11:03:44;;;;;;;29.67;15.93;;;;;;;15.45;40.72;101304.63;4924025;28;99556;-94
2024/03/08 11:06:29;;;;;;;26.38;14.88;;;;;;;15.66;39.09;101296.72;4939775;28;98081;-92
2024/03/08 11:08:57;;;;;;;27.80;16.25;;;;;;;15.80;39.46;101292.34;4943785;28;97452;-91
2024/03/08 11:11:32;;;;;;;27.08;15.35;;;;;;;16.00;39.74;101283.53;4923286;28;96879;-89
2024/03/08 11:13:58;;;;;;;24.83;15.15;;;;;;;16.23;39.08;101274.69;4942501;28;98879;-92
2024/03/08 11:16:27;;;;;;;24.38;13.65;;;;;;;16.28;37.99;101267.66;4937587;28;99098;-92